createdAt,value
2018-05-11T00:00:14.321Z,12.6
2018-05-11T00:01:16.346Z,12.6
2018-05-11T00:02:18.763Z,12.6
2018-05-11T00:03:20.804Z,12.6
2018-05-11T00:04:22.840Z,12.6
2018-05-11T00:05:24.879Z,12.6
2018-05-11T00:06:26.912Z,12.5
2018-05-11T00:07:29.229Z,12.6
2018-05-11T00:08:31.264Z,12.5
2018-05-11T00:09:33.297Z,12.5
2018-05-11T00:10:35.347Z,12.5
2018-05-11T00:11:37.373Z,12.5
2018-05-11T00:12:39.786Z,12.5
2018-05-11T00:13:41.826Z,12.5
2018-05-11T00:14:43.861Z,12.5
2018-05-11T00:15:45.906Z,12.5
2018-05-11T00:16:47.933Z,12.5
2018-05-11T00:17:49.972Z,12.4
2018-05-11T00:18:52.006Z,12.4
2018-05-11T00:19:54.025Z,12.5
2018-05-11T00:20:56.066Z,12.4
2018-05-11T00:21:58.102Z,12.4
2018-05-11T00:23:00.133Z,12.4
2018-05-11T00:24:02.176Z,12.4
2018-05-11T00:25:04.209Z,12.4
2018-05-11T00:26:06.242Z,12.4
2018-05-11T00:27:08.570Z,12.3
2018-05-11T00:28:10.610Z,12.4
2018-05-11T00:29:12.951Z,12.4
2018-05-11T00:30:15.268Z,12.3
2018-05-11T00:31:17.295Z,12.3
2018-05-11T00:32:19.718Z,12.3
2018-05-11T00:33:21.745Z,12.3
2018-05-11T00:34:23.774Z,12.3
2018-05-11T00:35:26.087Z,12.2
2018-05-11T00:36:28.125Z,12.3
2018-05-11T00:37:30.150Z,12.3
2018-05-11T00:38:32.184Z,12.3
2018-05-11T00:39:34.210Z,12.2
2018-05-11T00:40:36.251Z,12.3
2018-05-11T00:41:38.275Z,12.3
2018-05-11T00:42:40.313Z,12.3
2018-05-11T00:43:42.623Z,12.2
2018-05-11T00:44:44.655Z,12.3
2018-05-11T00:45:46.685Z,12.3
2018-05-11T00:46:49.122Z,12.3
2018-05-11T00:47:51.147Z,12.2
2018-05-11T00:48:53.175Z,12.2
2018-05-11T00:49:55.215Z,12.2
2018-05-11T00:50:57.311Z,12.2
2018-05-11T00:51:59.278Z,12.2
2018-05-11T00:53:01.315Z,12.2
2018-05-11T00:54:03.628Z,12.2
2018-05-11T00:55:05.672Z,12.1
2018-05-11T00:56:07.711Z,12.2
2018-05-11T00:57:09.741Z,12.1
2018-05-11T00:58:11.769Z,12.2
2018-05-11T00:59:13.804Z,12.2
2018-05-11T01:00:15.830Z,12.2
2018-05-11T01:01:18.172Z,12.1
2018-05-11T01:02:20.208Z,12.2
2018-05-11T01:03:22.245Z,12.2
2018-05-11T01:04:24.558Z,12.2
2018-05-11T01:05:26.588Z,12.2
2018-05-11T01:06:28.999Z,12.2
2018-05-11T01:07:31.060Z,12.2
2018-05-11T01:08:33.459Z,12.2
2018-05-11T01:09:35.780Z,12.2
2018-05-11T01:10:37.816Z,12.2
2018-05-11T01:11:39.850Z,12.1
2018-05-11T01:12:41.886Z,12.2
2018-05-11T01:13:43.917Z,12.1
2018-05-11T01:14:45.937Z,12.2
2018-05-11T01:15:47.976Z,12.1
2018-05-11T01:16:50.327Z,12.2
2018-05-11T01:17:52.342Z,12.2
2018-05-11T01:18:54.794Z,12.1
2018-05-11T01:19:56.789Z,12
2018-05-11T01:20:58.817Z,12.1
2018-05-11T01:22:00.851Z,12.2
2018-05-11T01:23:02.879Z,12.1
2018-05-11T01:24:04.922Z,12.1
2018-05-11T01:25:06.959Z,12.1
2018-05-11T01:26:08.995Z,12.1
2018-05-11T01:27:11.027Z,12.1
2018-05-11T01:28:13.055Z,12.1
2018-05-11T01:29:15.093Z,12.1
2018-05-11T01:30:17.117Z,12.1
2018-05-11T01:31:19.153Z,12.1
2018-05-11T01:32:21.193Z,12.1
2018-05-11T01:33:23.215Z,12
2018-05-11T01:34:25.259Z,12
2018-05-11T01:35:27.276Z,12.1
2018-05-11T01:36:29.313Z,12
2018-05-11T01:37:31.338Z,12
2018-05-11T01:38:33.365Z,12
2018-05-11T01:39:35.405Z,12
2018-05-11T01:40:37.439Z,11.9
2018-05-11T01:41:39.471Z,11.9
2018-05-11T01:42:41.521Z,11.9
2018-05-11T01:43:43.541Z,11.9
2018-05-11T01:44:45.868Z,11.9
2018-05-11T01:45:47.895Z,11.8
2018-05-11T01:46:49.924Z,11.9
2018-05-11T01:47:51.962Z,11.8
2018-05-11T01:48:54.381Z,11.8
2018-05-11T01:49:56.396Z,11.9
2018-05-11T01:50:58.427Z,11.8
2018-05-11T01:52:00.459Z,11.8
2018-05-11T01:53:02.494Z,11.8
2018-05-11T01:54:05.324Z,11.7
2018-05-11T01:55:07.342Z,11.6
2018-05-11T01:56:09.376Z,11.7
2018-05-11T01:57:11.726Z,11.7
2018-05-11T01:58:14.043Z,11.7
2018-05-11T01:59:16.084Z,11.7
2018-05-11T02:00:18.114Z,11.6
2018-05-11T02:01:20.147Z,11.7
2018-05-11T02:02:22.184Z,11.7
2018-05-11T02:03:24.218Z,11.7
2018-05-11T02:04:26.249Z,11.7
2018-05-11T02:05:28.279Z,11.6
2018-05-11T02:06:30.326Z,11.6
2018-05-11T02:07:32.349Z,11.6
2018-05-11T02:08:34.372Z,11.7
2018-05-11T02:09:36.408Z,11.7
2018-05-11T02:10:38.441Z,11.7
2018-05-11T02:11:40.762Z,11.7
2018-05-11T02:12:42.789Z,11.7
2018-05-11T02:13:44.831Z,11.7
2018-05-11T02:14:46.870Z,11.7
2018-05-11T02:15:48.881Z,11.7
2018-05-11T02:16:50.921Z,11.7
2018-05-11T02:17:52.951Z,11.7
2018-05-11T02:18:54.981Z,11.7
2018-05-11T02:19:57.299Z,11.7
2018-05-11T02:20:59.334Z,11.6
2018-05-11T02:22:01.373Z,11.6
2018-05-11T02:23:03.395Z,11.6
2018-05-11T02:24:05.430Z,11.6
2018-05-11T02:25:07.475Z,11.7
2018-05-11T02:26:09.506Z,11.7
2018-05-11T02:27:11.531Z,11.6
2018-05-11T02:28:13.852Z,11.7
2018-05-11T02:29:15.892Z,11.7
2018-05-11T02:30:18.494Z,11.7
2018-05-11T02:31:20.826Z,11.7
2018-05-11T02:32:22.875Z,11.8
2018-05-11T02:33:25.201Z,11.8
2018-05-11T02:34:27.616Z,11.8
2018-05-11T02:35:29.647Z,11.8
2018-05-11T02:36:31.965Z,11.7
2018-05-11T02:37:33.989Z,11.7
2018-05-11T02:38:36.022Z,11.7
2018-05-11T02:39:38.048Z,11.8
2018-05-11T02:40:40.159Z,11.8
2018-05-11T02:41:42.129Z,11.8
2018-05-11T02:42:44.161Z,11.8
2018-05-11T02:43:46.188Z,11.8
2018-05-11T02:44:48.523Z,11.8
2018-05-11T02:45:50.831Z,11.9
2018-05-11T02:46:53.431Z,11.8
2018-05-11T02:47:55.474Z,11.8
2018-05-11T02:48:57.504Z,11.7
2018-05-11T02:49:59.533Z,11.8
2018-05-11T02:51:01.873Z,11.8
2018-05-11T02:52:04.184Z,11.8
2018-05-11T02:53:06.608Z,11.8
2018-05-11T02:54:08.633Z,11.8
2018-05-11T02:55:10.963Z,11.8
2018-05-11T02:56:13.004Z,11.8
2018-05-11T02:57:15.331Z,11.8
2018-05-11T02:58:17.372Z,11.8
2018-05-11T02:59:19.404Z,11.8
2018-05-11T03:00:21.828Z,11.8
2018-05-11T03:01:24.149Z,11.8
2018-05-11T03:02:26.184Z,11.8
2018-05-11T03:03:28.789Z,11.8
2018-05-11T03:04:31.417Z,11.7
2018-05-11T03:05:33.444Z,11.7
2018-05-11T03:06:35.486Z,11.8
2018-05-11T03:07:37.522Z,11.7
2018-05-11T03:08:39.838Z,11.8
2018-05-11T03:09:42.262Z,11.7
2018-05-11T03:10:44.294Z,11.7
2018-05-11T03:11:47.025Z,11.7
2018-05-11T03:12:49.361Z,11.8
2018-05-11T03:13:51.794Z,11.8
2018-05-11T03:14:54.109Z,11.8
2018-05-11T03:15:56.139Z,11.8
2018-05-11T03:16:58.549Z,11.8
2018-05-11T03:18:00.584Z,11.7
2018-05-11T03:19:02.905Z,11.7
2018-05-11T03:20:04.956Z,11.7
2018-05-11T03:21:06.982Z,11.7
2018-05-11T03:22:09.300Z,11.8
2018-05-11T03:23:11.341Z,11.8
2018-05-11T03:24:13.377Z,11.8
2018-05-11T03:25:15.410Z,11.8
2018-05-11T03:26:17.448Z,11.8
2018-05-11T03:27:19.465Z,11.7
2018-05-11T03:28:21.512Z,11.7
2018-05-11T03:29:23.542Z,11.7
2018-05-11T03:30:25.869Z,11.8
2018-05-11T03:31:27.906Z,11.7
2018-05-11T03:32:30.331Z,11.7
2018-05-11T03:33:32.361Z,11.7
2018-05-11T03:34:34.387Z,11.7
2018-05-11T03:35:36.808Z,11.7
2018-05-11T03:36:38.850Z,11.7
2018-05-11T03:37:40.887Z,11.7
2018-05-11T03:38:42.910Z,11.7
2018-05-11T03:39:44.944Z,11.7
2018-05-11T03:40:47.274Z,11.7
2018-05-11T03:41:49.300Z,11.7
2018-05-11T03:42:51.338Z,11.7
2018-05-11T03:43:53.363Z,11.7
2018-05-11T03:44:55.689Z,11.8
2018-05-11T03:45:58.117Z,11.7
2018-05-11T03:47:00.730Z,11.8
2018-05-11T03:48:02.780Z,11.7
2018-05-11T03:49:04.806Z,11.7
2018-05-11T03:50:06.843Z,11.7
2018-05-11T03:51:08.880Z,11.7
2018-05-11T03:52:11.576Z,11.7
2018-05-11T03:53:13.902Z,11.7
2018-05-11T03:54:15.930Z,11.7
2018-05-11T03:55:17.967Z,11.7
2018-05-11T03:56:19.992Z,11.8
2018-05-11T03:57:22.027Z,11.8
2018-05-11T03:58:24.045Z,11.8
2018-05-11T03:59:26.115Z,11.8
2018-05-11T04:00:28.111Z,11.8
2018-05-11T04:01:30.152Z,11.7
2018-05-11T04:02:32.455Z,11.7
2018-05-11T04:03:34.487Z,11.7
2018-05-11T04:04:36.521Z,11.7
2018-05-11T04:05:38.553Z,11.7
2018-05-11T04:06:40.592Z,11.6
2018-05-11T04:07:42.638Z,11.7
2018-05-11T04:08:44.665Z,11.7
2018-05-11T04:09:46.700Z,11.7
2018-05-11T04:10:48.725Z,11.7
2018-05-11T04:11:50.771Z,11.7
2018-05-11T04:12:52.800Z,11.7
2018-05-11T04:13:54.833Z,11.7
2018-05-11T04:14:56.870Z,11.7
2018-05-11T04:15:58.894Z,11.7
2018-05-11T04:17:01.225Z,11.7
2018-05-11T04:18:03.260Z,11.7
2018-05-11T04:19:05.572Z,11.7
2018-05-11T04:20:07.615Z,11.7
2018-05-11T04:21:09.647Z,11.7
2018-05-11T04:22:11.676Z,11.8
2018-05-11T04:23:13.998Z,11.8
2018-05-11T04:24:16.024Z,11.7
2018-05-11T04:25:18.349Z,11.7
2018-05-11T04:26:20.376Z,11.8
2018-05-11T04:27:22.410Z,11.8
2018-05-11T04:28:24.743Z,11.8
2018-05-11T04:29:26.771Z,11.8
2018-05-11T04:30:28.797Z,11.8
2018-05-11T04:31:30.829Z,11.8
2018-05-11T04:32:33.170Z,11.8
2018-05-11T04:33:35.192Z,11.8
2018-05-11T04:34:37.221Z,11.8
2018-05-11T04:35:39.257Z,11.8
2018-05-11T04:36:41.298Z,11.8
2018-05-11T04:37:43.330Z,11.8
2018-05-11T04:38:45.359Z,11.8
2018-05-11T04:39:47.390Z,11.8
2018-05-11T04:40:49.813Z,11.9
2018-05-11T04:41:52.129Z,11.9
2018-05-11T04:42:54.453Z,11.9
2018-05-11T04:43:56.491Z,11.9
2018-05-11T04:44:58.525Z,11.8
2018-05-11T04:46:00.841Z,11.8
2018-05-11T04:47:02.872Z,11.8
2018-05-11T04:48:04.902Z,11.8
2018-05-11T04:49:06.940Z,11.9
2018-05-11T04:50:08.961Z,11.9
2018-05-11T04:51:11.000Z,11.9
2018-05-11T04:52:13.038Z,11.9
2018-05-11T04:53:15.055Z,11.9
2018-05-11T04:54:17.103Z,12
2018-05-11T04:55:19.133Z,12
2018-05-11T04:56:21.452Z,12
2018-05-11T04:57:23.485Z,12
2018-05-11T04:58:25.517Z,11.9
2018-05-11T04:59:27.555Z,11.9
2018-05-11T05:00:29.586Z,11.8
2018-05-11T05:01:31.606Z,11.9
2018-05-11T05:02:33.705Z,11.9
2018-05-11T05:03:35.730Z,11.9
2018-05-11T05:04:38.056Z,11.9
2018-05-11T05:05:40.081Z,11.9
2018-05-11T05:06:42.410Z,11.9
2018-05-11T05:07:44.445Z,11.9
2018-05-11T05:08:46.480Z,11.9
2018-05-11T05:09:48.515Z,11.9
2018-05-11T05:10:50.945Z,11.9
2018-05-11T05:11:52.970Z,11.9
2018-05-11T05:12:55.011Z,12
2018-05-11T05:13:57.048Z,11.9
2018-05-11T05:14:59.153Z,11.9
2018-05-11T05:16:01.110Z,12
2018-05-11T05:17:03.135Z,12
2018-05-11T05:18:05.173Z,11.9
2018-05-11T05:19:07.882Z,11.9
2018-05-11T05:20:09.878Z,12
2018-05-11T05:21:11.935Z,12
2018-05-11T05:22:13.970Z,12
2018-05-11T05:23:15.993Z,12
2018-05-11T05:24:18.321Z,12.1
2018-05-11T05:25:20.364Z,12.1
2018-05-11T05:26:22.397Z,12
2018-05-11T05:27:24.718Z,12
2018-05-11T05:28:27.039Z,12.1
2018-05-11T05:29:29.661Z,12.1
2018-05-11T05:30:31.975Z,12.1
2018-05-11T05:31:34.003Z,12.1
2018-05-11T05:32:36.418Z,12.2
2018-05-11T05:33:38.764Z,12.2
2018-05-11T05:34:41.108Z,12.2
2018-05-11T05:35:43.135Z,12.3
2018-05-11T05:36:45.165Z,12.3
2018-05-11T05:37:47.485Z,12.3
2018-05-11T05:38:49.527Z,12.2
2018-05-11T05:39:51.558Z,12.3
2018-05-11T05:40:53.872Z,12.3
2018-05-11T05:41:55.920Z,12.3
2018-05-11T05:42:57.956Z,12.2
2018-05-11T05:44:00.267Z,12.3
2018-05-11T05:45:02.706Z,12.3
2018-05-11T05:46:04.738Z,12.3
2018-05-11T05:47:06.783Z,12.4
2018-05-11T05:48:08.812Z,12.3
2018-05-11T05:49:11.193Z,12.4
2018-05-11T05:50:13.226Z,12.3
2018-05-11T05:51:15.847Z,12.4
2018-05-11T05:52:18.172Z,12.4
2018-05-11T05:53:20.205Z,12.3
2018-05-11T05:54:22.239Z,12.3
2018-05-11T05:55:24.563Z,12.3
2018-05-11T05:56:26.591Z,12.2
2018-05-11T05:57:28.635Z,12.3
2018-05-11T05:58:30.673Z,12.3
2018-05-11T05:59:33.002Z,12.4
2018-05-11T06:00:35.323Z,12.3
2018-05-11T06:01:37.358Z,12.3
2018-05-11T06:02:39.395Z,12.3
2018-05-11T06:03:41.433Z,12.4
2018-05-11T06:04:43.554Z,12.4
2018-05-11T06:05:45.517Z,12.4
2018-05-11T06:06:47.830Z,12.5
2018-05-11T06:07:49.859Z,12.7
2018-05-11T06:08:51.901Z,12.6
2018-05-11T06:09:54.323Z,12.6
2018-05-11T06:10:56.576Z,12.6
2018-05-11T06:11:59.192Z,12.6
2018-05-11T06:13:01.234Z,12.6
2018-05-11T06:14:03.273Z,12.6
2018-05-11T06:15:05.705Z,12.7
2018-05-11T06:16:08.029Z,12.8
2018-05-11T06:17:10.044Z,12.8
2018-05-11T06:18:12.365Z,12.8
2018-05-11T06:19:14.399Z,12.8
2018-05-11T06:20:16.420Z,12.9
2018-05-11T06:21:18.462Z,12.8
2018-05-11T06:22:20.498Z,12.8
2018-05-11T06:23:22.530Z,12.9
2018-05-11T06:24:24.552Z,13
2018-05-11T06:25:26.580Z,13
2018-05-11T06:26:28.625Z,13.1
2018-05-11T06:27:30.972Z,13.1
2018-05-11T06:28:33.293Z,13.1
2018-05-11T06:29:35.331Z,13.2
2018-05-11T06:30:37.676Z,13.2
2018-05-11T06:31:39.712Z,13.3
2018-05-11T06:32:41.753Z,13.1
2018-05-11T06:33:44.185Z,13.2
2018-05-11T06:34:46.226Z,13.3
2018-05-11T06:35:48.561Z,13.3
2018-05-11T06:36:50.590Z,13.4
2018-05-11T06:37:52.627Z,13.4
2018-05-11T06:38:54.655Z,13.5
2018-05-11T06:39:56.987Z,13.5
2018-05-11T06:40:59.019Z,13.6
2018-05-11T06:42:01.373Z,13.7
2018-05-11T06:43:03.705Z,13.7
2018-05-11T06:44:05.739Z,13.6
2018-05-11T06:45:07.767Z,13.7
2018-05-11T06:46:10.278Z,13.9
2018-05-11T06:47:12.305Z,13.9
2018-05-11T06:48:14.331Z,13.9
2018-05-11T06:49:16.659Z,14
2018-05-11T06:50:18.702Z,14
2018-05-11T06:51:20.744Z,14.2
2018-05-11T06:52:22.782Z,14.3
2018-05-11T06:53:24.819Z,14.4
2018-05-11T06:54:26.852Z,14.5
2018-05-11T06:55:28.908Z,14.4
2018-05-11T06:56:30.938Z,14.4
2018-05-11T06:57:32.984Z,14.3
2018-05-11T06:58:35.406Z,14.4
2018-05-11T06:59:37.436Z,14.3
2018-05-11T07:00:39.477Z,14.2
2018-05-11T07:01:41.610Z,14.2
2018-05-11T07:02:43.546Z,14.3
2018-05-11T07:03:45.881Z,14.3
2018-05-11T07:04:48.291Z,14.4
2018-05-11T07:05:50.727Z,14.2
2018-05-11T07:06:53.057Z,14.3
2018-05-11T07:07:55.152Z,14.2
2018-05-11T07:08:57.129Z,14.2
2018-05-11T07:09:59.169Z,14.2
2018-05-11T07:11:01.275Z,14.2
2018-05-11T07:12:03.238Z,14.2
2018-05-11T07:13:05.272Z,14.1
2018-05-11T07:14:07.320Z,14.1
2018-05-11T07:15:09.357Z,14.2
2018-05-11T07:16:11.390Z,14.1
2018-05-11T07:17:13.429Z,14
2018-05-11T07:18:15.775Z,13.8
2018-05-11T07:19:17.825Z,13.9
2018-05-11T07:20:20.438Z,13.8
2018-05-11T07:21:22.490Z,13.9
2018-05-11T07:22:24.526Z,13.8
2018-05-11T07:23:26.566Z,13.9
2018-05-11T07:24:28.602Z,13.9
2018-05-11T07:25:30.646Z,13.9
2018-05-11T07:26:32.966Z,13.8
2018-05-11T07:27:35.404Z,13.9
2018-05-11T07:28:37.429Z,13.9
2018-05-11T07:29:39.763Z,13.9
2018-05-11T07:30:42.105Z,13.9
2018-05-11T07:31:44.141Z,13.9
2018-05-11T07:32:46.486Z,14
2018-05-11T07:33:48.524Z,14.2
2018-05-11T07:34:50.626Z,14.3
2018-05-11T07:35:52.604Z,14.4
2018-05-11T07:36:54.928Z,14.6
2018-05-11T07:37:56.970Z,14.7
2018-05-11T07:38:59.007Z,14.7
2018-05-11T07:40:01.334Z,14.5
2018-05-11T07:41:03.371Z,14.4
2018-05-11T07:42:05.415Z,14.5
2018-05-11T07:43:07.585Z,14.6
2018-05-11T07:44:09.490Z,14.7
2018-05-11T07:45:11.520Z,14.9
2018-05-11T07:46:14.244Z,14.8
2018-05-11T07:47:16.271Z,14.9
2018-05-11T07:48:18.306Z,14.9
2018-05-11T07:49:20.357Z,15.1
2018-05-11T07:50:22.706Z,15.3
2018-05-11T07:51:25.033Z,15.2
2018-05-11T07:52:27.351Z,15.2
2018-05-11T07:53:29.780Z,15.1
2018-05-11T07:54:31.818Z,15.2
2018-05-11T07:55:33.849Z,15
2018-05-11T07:56:36.298Z,15
2018-05-11T07:57:38.629Z,15
2018-05-11T07:58:40.673Z,15
2018-05-11T07:59:42.711Z,15.1
2018-05-11T08:00:44.754Z,15.2
2018-05-11T08:01:46.792Z,15.4
2018-05-11T08:02:48.830Z,15.4
2018-05-11T08:03:51.372Z,15.7
2018-05-11T08:04:53.673Z,15.6
2018-05-11T08:05:55.718Z,15.6
2018-05-11T08:06:57.766Z,15.3
2018-05-11T08:08:00.124Z,15.3
2018-05-11T08:09:02.147Z,15.3
2018-05-11T08:10:04.202Z,15.5
2018-05-11T08:11:06.280Z,15.7
2018-05-11T08:12:08.303Z,15.8
2018-05-11T08:13:10.376Z,15.9
2018-05-11T08:14:12.842Z,16
2018-05-11T08:15:14.806Z,15.8
2018-05-11T08:16:17.126Z,15.8
2018-05-11T08:17:19.173Z,15.9
2018-05-11T08:18:21.226Z,16
2018-05-11T08:19:23.274Z,16.1
2018-05-11T08:20:25.328Z,16.1
2018-05-11T08:21:27.888Z,16
2018-05-11T08:22:30.163Z,16.2
2018-05-11T08:23:32.245Z,16.4
2018-05-11T08:24:34.282Z,16.4
2018-05-11T08:25:37.482Z,16.5
2018-05-11T08:26:39.635Z,16.7
2018-05-11T08:27:41.557Z,16.9
2018-05-11T08:28:43.606Z,16.9
2018-05-11T08:29:45.713Z,16.8
2018-05-11T08:30:47.745Z,17
2018-05-11T08:31:49.790Z,16.9
2018-05-11T08:32:51.831Z,16.8
2018-05-11T08:33:53.879Z,16.6
2018-05-11T08:34:55.915Z,16.6
2018-05-11T08:35:58.084Z,16.9
2018-05-11T08:37:00.463Z,16.8
2018-05-11T08:38:02.498Z,16.5
2018-05-11T08:39:04.539Z,16.4
2018-05-11T08:40:06.587Z,16.5
2018-05-11T08:41:08.629Z,16.5
2018-05-11T08:42:10.681Z,16.6
2018-05-11T08:43:13.010Z,16.7
2018-05-11T08:44:15.323Z,17
2018-05-11T08:45:17.371Z,17.2
2018-05-11T08:46:19.939Z,17.4
2018-05-11T08:47:21.898Z,17.5
2018-05-11T08:48:24.337Z,17.3
2018-05-11T08:49:26.380Z,17.1
2018-05-11T08:50:28.430Z,17.5
2018-05-11T08:51:30.464Z,17.5
2018-05-11T08:52:32.503Z,17.6
2018-05-11T08:53:34.562Z,17.7
2018-05-11T08:54:36.601Z,17.7
2018-05-11T08:55:39.031Z,17.7
2018-05-11T08:56:41.077Z,17.8
2018-05-11T08:57:43.115Z,17.7
2018-05-11T08:58:45.553Z,17.5
2018-05-11T08:59:47.583Z,17.5
2018-05-11T09:00:49.637Z,17.7
2018-05-11T09:01:51.675Z,17.8
2018-05-11T09:02:54.126Z,18
2018-05-11T09:03:56.086Z,18
2018-05-11T09:04:58.138Z,17.9
2018-05-11T09:06:00.190Z,17.8
2018-05-11T09:07:02.229Z,17.9
2018-05-11T09:08:04.268Z,18
2018-05-11T09:09:06.603Z,17.9
2018-05-11T09:10:08.912Z,17.8
2018-05-11T09:11:10.968Z,17.9
2018-05-11T09:12:13.010Z,18.1
2018-05-11T09:13:15.057Z,18.1
2018-05-11T09:14:17.098Z,18.1
2018-05-11T09:15:19.150Z,18.1
2018-05-11T09:16:21.479Z,18.2
2018-05-11T09:17:23.544Z,18
2018-05-11T09:18:25.588Z,18.1
2018-05-11T09:19:27.628Z,18.4
2018-05-11T09:20:29.676Z,18.4
2018-05-11T09:21:31.846Z,18.5
2018-05-11T09:22:33.766Z,18.4
2018-05-11T09:23:36.097Z,18.6
2018-05-11T09:24:38.421Z,18.7
2018-05-11T09:25:41.071Z,18.8
2018-05-11T09:26:43.117Z,18.8
2018-05-11T09:28:10.840Z,18.8
2018-05-11T09:29:44.994Z,18.7
2018-05-11T09:30:47.046Z,18.6
2018-05-11T09:31:49.470Z,18.6
2018-05-11T09:32:51.486Z,18.5
2018-05-11T09:33:53.534Z,18.6
2018-05-11T09:34:55.596Z,18.8
2018-05-11T09:35:57.653Z,18.8
2018-05-11T09:36:59.687Z,18.7
2018-05-11T09:38:02.021Z,18.6
2018-05-11T09:39:04.069Z,18.4
2018-05-11T09:40:06.120Z,18.5
2018-05-11T09:41:08.157Z,18.4
2018-05-11T09:42:10.211Z,18.2
2018-05-11T09:43:12.256Z,18.5
2018-05-11T09:44:14.356Z,18.6
2018-05-11T09:45:29.095Z,18.7
2018-05-11T09:46:56.808Z,18.7
2018-05-11T09:47:59.181Z,19.1
2018-05-11T09:49:01.220Z,18.9
2018-05-11T09:50:03.657Z,19.4
2018-05-11T09:51:05.698Z,19.4
2018-05-11T09:52:07.739Z,19.4
2018-05-11T09:53:10.079Z,19.3
2018-05-11T09:54:12.123Z,19.5
2018-05-11T09:55:14.189Z,19.3
2018-05-11T09:56:16.240Z,19.3
2018-05-11T09:57:18.300Z,19.1
2018-05-11T09:58:20.337Z,19.2
2018-05-11T09:59:22.407Z,19.7
2018-05-11T10:00:24.452Z,19.4
2018-05-11T10:01:26.497Z,19.4
2018-05-11T10:02:28.551Z,19.4
2018-05-11T10:03:30.603Z,19.4
2018-05-11T10:04:32.672Z,19.5
2018-05-11T10:05:34.713Z,19.7
2018-05-11T10:06:36.768Z,19.1
2018-05-11T10:07:38.837Z,19.2
2018-05-11T10:08:40.870Z,19.3
2018-05-11T10:09:42.926Z,19.1
2018-05-11T10:10:44.978Z,19.1
2018-05-11T10:11:47.034Z,19.3
2018-05-11T10:12:49.077Z,19.4
2018-05-11T10:13:51.131Z,19.6
2018-05-11T10:14:53.176Z,19.5
2018-05-11T10:15:55.224Z,19.6
2018-05-11T10:16:57.277Z,19.4
2018-05-11T10:17:59.341Z,19.7
2018-05-11T10:19:01.973Z,19.9
2018-05-11T10:20:04.394Z,19.6
2018-05-11T10:21:07.016Z,19.7
2018-05-11T10:22:09.059Z,19.4
2018-05-11T10:23:11.119Z,19.6
2018-05-11T10:24:13.173Z,19.5
2018-05-11T10:25:15.234Z,19.3
2018-05-11T10:26:17.680Z,19.6
2018-05-11T10:27:20.015Z,19.6
2018-05-11T10:28:22.435Z,19.6
2018-05-11T10:29:24.411Z,19.5
2018-05-11T10:30:26.464Z,19.8
2018-05-11T10:31:28.519Z,19.5
2018-05-11T10:32:30.568Z,19.7
2018-05-11T10:33:32.623Z,19.8
2018-05-11T10:34:34.706Z,19.6
2018-05-11T10:35:36.725Z,20
2018-05-11T10:36:39.167Z,20.1
2018-05-11T10:37:41.218Z,19.7
2018-05-11T10:38:43.270Z,19.7
2018-05-11T10:39:45.762Z,19.7
2018-05-11T10:40:47.802Z,19.7
2018-05-11T10:41:50.443Z,19.8
2018-05-11T10:42:52.493Z,19.9
2018-05-11T10:43:54.542Z,20.1
2018-05-11T10:44:56.593Z,19.9
2018-05-11T10:45:58.648Z,19.8
2018-05-11T10:47:00.708Z,20.2
2018-05-11T10:48:03.150Z,20.5
2018-05-11T10:49:05.196Z,20.5
2018-05-11T10:50:07.555Z,20.2
2018-05-11T10:51:09.612Z,19.7
2018-05-11T10:52:11.670Z,20
2018-05-11T10:53:13.718Z,20.1
2018-05-11T10:54:15.772Z,19.9
2018-05-11T10:55:17.843Z,20
2018-05-11T10:56:19.883Z,20
2018-05-11T10:57:22.314Z,20.3
2018-05-11T10:58:24.382Z,19.5
2018-05-11T10:59:26.713Z,19.3
2018-05-11T11:00:28.784Z,19.9
2018-05-11T11:01:30.836Z,20.1
2018-05-11T11:02:33.172Z,20.5
2018-05-11T11:03:35.517Z,20.4
2018-05-11T11:04:37.562Z,20.4
2018-05-11T11:05:40.008Z,20.3
2018-05-11T11:06:42.058Z,20.4
2018-05-11T11:07:44.382Z,20.5
2018-05-11T11:08:46.443Z,20.4
2018-05-11T11:09:48.492Z,20.5
2018-05-11T11:10:50.547Z,20.3
2018-05-11T11:11:52.608Z,20.5
2018-05-11T11:12:54.665Z,20.7
2018-05-11T11:13:56.709Z,21.1
2018-05-11T11:14:58.779Z,20.8
2018-05-11T11:16:00.840Z,20.7
2018-05-11T11:17:03.183Z,20.7
2018-05-11T11:18:05.239Z,20.5
2018-05-11T11:19:08.262Z,20.5
2018-05-11T11:20:10.647Z,20.4
2018-05-11T11:21:12.702Z,20.9
2018-05-11T11:22:15.111Z,20.8
2018-05-11T11:23:17.469Z,21.3
2018-05-11T11:24:19.913Z,21.1
2018-05-11T11:25:21.988Z,21
2018-05-11T11:26:24.111Z,21
2018-05-11T11:27:26.508Z,21.1
2018-05-11T11:28:28.856Z,20.9
2018-05-11T11:29:30.904Z,20.8
2018-05-11T11:30:32.972Z,20.8
2018-05-11T11:31:35.035Z,20.9
2018-05-11T11:32:37.077Z,20.9
2018-05-11T11:33:39.529Z,20.8
2018-05-11T11:34:41.597Z,20.9
2018-05-11T11:35:43.630Z,21
2018-05-11T11:36:45.970Z,20.8
2018-05-11T11:37:48.342Z,20.6
2018-05-11T11:38:50.399Z,20.8
2018-05-11T11:39:52.449Z,20.8
2018-05-11T11:40:54.494Z,20.7
2018-05-11T11:41:56.554Z,20.6
2018-05-11T11:42:58.601Z,21.2
2018-05-11T11:44:00.661Z,21
2018-05-11T11:45:02.718Z,21.3
2018-05-11T11:46:04.776Z,21.3
2018-05-11T11:47:07.105Z,21.1
2018-05-11T11:48:09.151Z,21
2018-05-11T11:49:11.496Z,21.3
2018-05-11T11:50:13.570Z,21.1
2018-05-11T11:51:15.913Z,21.8
2018-05-11T11:52:18.347Z,21.7
2018-05-11T11:53:20.697Z,21.1
2018-05-11T11:54:23.126Z,21.7
2018-05-11T11:55:25.198Z,21.5
2018-05-11T11:56:27.644Z,21.6
2018-05-11T11:57:29.612Z,21.5
2018-05-11T11:58:31.667Z,21.4
2018-05-11T11:59:33.716Z,21.5
2018-05-11T12:00:35.771Z,21.5
2018-05-11T12:01:38.291Z,21.3
2018-05-11T12:02:40.282Z,21.3
2018-05-11T12:03:42.337Z,21.3
2018-05-11T12:04:44.384Z,21.2
2018-05-11T12:05:46.444Z,21.3
2018-05-11T12:06:48.849Z,21.4
2018-05-11T12:07:50.861Z,21.3
2018-05-11T12:08:52.966Z,21
2018-05-11T12:09:54.900Z,20.8
2018-05-11T12:10:57.235Z,21
2018-05-11T12:11:59.280Z,21.1
2018-05-11T12:13:01.571Z,21.2
2018-05-11T12:14:03.598Z,21.7
2018-05-11T12:15:05.608Z,21.5
2018-05-11T12:16:07.617Z,21.4
2018-05-11T12:17:10.019Z,21.4
2018-05-11T12:18:12.032Z,21.3
2018-05-11T12:19:14.440Z,21.3
2018-05-11T12:20:16.720Z,21.5
2018-05-11T12:21:19.053Z,21.5
2018-05-11T12:22:21.066Z,21.3
2018-05-11T12:23:23.079Z,21.4
2018-05-11T12:24:25.092Z,21.4
2018-05-11T12:25:27.478Z,21.3
2018-05-11T12:26:29.711Z,21.3
2018-05-11T12:27:31.747Z,21.4
2018-05-11T12:28:35.148Z,20.7
2018-05-11T12:29:37.178Z,21.3
2018-05-11T12:30:39.522Z,20.9
2018-05-11T12:31:41.679Z,21.6
2018-05-11T12:32:43.980Z,21.4
2018-05-11T12:33:46.111Z,21.9
2018-05-11T12:34:48.212Z,22.1
2018-05-11T12:35:50.856Z,21.7
2018-05-11T12:36:52.889Z,21.6
2018-05-11T12:37:55.365Z,21.5
2018-05-11T12:38:57.501Z,21.5
2018-05-11T12:39:59.681Z,21.4
2018-05-11T12:41:02.087Z,21.3
2018-05-11T12:42:04.207Z,21.3
2018-05-11T12:43:06.310Z,21.4
2018-05-11T12:44:08.309Z,21.1
2018-05-11T12:45:10.617Z,21.2
2018-05-11T12:46:12.621Z,21.1
2018-05-11T12:47:14.635Z,21.1
2018-05-11T12:48:16.660Z,21.4
2018-05-11T12:49:18.684Z,21.5
2018-05-11T12:50:20.690Z,21.4
2018-05-11T12:51:22.709Z,21.3
2018-05-11T12:52:25.038Z,21.2
2018-05-11T12:53:27.058Z,21.5
2018-05-11T12:54:29.047Z,21.7
2018-05-11T12:55:31.066Z,21.6
2018-05-11T12:56:33.098Z,21.5
2018-05-11T12:57:35.101Z,21.7
2018-05-11T12:58:37.132Z,21.5
2018-05-11T12:59:39.720Z,21.7
2018-05-11T13:00:41.736Z,21.8
2018-05-11T13:01:43.750Z,22.1
2018-05-11T13:02:45.790Z,22.2
2018-05-11T13:03:47.852Z,21.9
2018-05-11T13:04:49.915Z,21.2
2018-05-11T13:05:51.964Z,21.7
2018-05-11T13:06:54.022Z,22
2018-05-11T13:07:56.459Z,21.8
2018-05-11T13:08:59.450Z,21.8
2018-05-11T13:10:01.507Z,21.7
2018-05-11T13:11:03.844Z,21.4
2018-05-11T13:12:05.915Z,21.5
2018-05-11T13:13:08.246Z,21.5
2018-05-11T13:14:10.303Z,21.7
2018-05-11T13:15:12.653Z,21.3
2018-05-11T13:16:14.708Z,21.3
2018-05-11T13:17:17.170Z,21.5
2018-05-11T13:18:19.209Z,21.7
2018-05-11T13:19:21.282Z,22
2018-05-11T13:20:23.362Z,21.8
2018-05-11T13:21:25.415Z,21.8
2018-05-11T13:22:27.865Z,22.1
2018-05-11T13:23:29.920Z,22
2018-05-11T13:24:31.990Z,21.5
2018-05-11T13:25:34.402Z,21.8
2018-05-11T13:26:36.707Z,21.9
2018-05-11T13:27:38.718Z,21.8
2018-05-11T13:28:40.831Z,21.8
2018-05-11T13:29:42.774Z,21.6
2018-05-11T13:30:44.822Z,21.3
2018-05-11T13:31:46.808Z,21.7
2018-05-11T13:32:48.825Z,21.5
2018-05-11T13:33:50.875Z,22.6
2018-05-11T13:34:53.304Z,22.1
2018-05-11T13:35:55.311Z,21.9
2018-05-11T13:36:57.334Z,21.5
2018-05-11T13:37:59.681Z,21.5
2018-05-11T13:39:01.732Z,21.9
2018-05-11T13:40:03.791Z,22.5
2018-05-11T13:41:05.849Z,22.7
2018-05-11T13:42:07.912Z,21.7
2018-05-11T13:43:09.969Z,21.6
2018-05-11T13:44:12.297Z,21.7
2018-05-11T13:45:14.367Z,21.8
2018-05-11T13:46:16.806Z,22.4
2018-05-11T13:47:19.254Z,22.2
2018-05-11T13:48:21.351Z,21.8
2018-05-11T13:49:23.366Z,21.8
2018-05-11T13:50:25.428Z,21.9
2018-05-11T13:51:27.493Z,21.8
2018-05-11T13:52:29.544Z,22.4